Terminal Aerodrome Forecast
Issued by NWS Sioux Falls, SD

Home | Current Version | Previous Version | Text Only | Print | Product List | Glossary On
Versions: 1 2 3 4 5 6 7 8 9 10 11 12 13
000
FTUS43 KFSD 211132
TAFFSD
TAF
KFSD 211132Z 2112/2212 13009KT P6SM -TSRA BKN060CB
     FM211330 13010KT P6SM VCTS BKN090CB
     FM211600 14013G21KT P6SM BKN250
     FM212000 17011KT P6SM SCT140
     FM212300 20006KT P6SM SCT050
     FM220000 21005KT P6SM SCT250
     FM220800 01004KT P6SM BKN200=

USA.gov is the U.S. government's official web portal to all federal, state and local government web resources and services.